sensor_id;sensor_type;location;lat;lon;timestamp;P1;P2;P0
74436;PMS7003;62868;52.360;30.424;2023-07-29T00:00:27;0.3;0;0
74436;PMS7003;62868;52.360;30.424;2023-07-29T00:05:23;0.3;0;0
74436;PMS7003;62868;52.360;30.424;2023-07-29T00:10:40;0;0;0
74436;PMS7003;62868;52.360;30.424;2023-07-29T00:15:44;0;0;0
74436;PMS7003;62868;52.360;30.424;2023-07-29T00:20:52;0;0;0
74436;PMS7003;62868;52.360;30.424;2023-07-29T00:25:29;0;0;0
74436;PMS7003;62868;52.360;30.424;2023-07-29T00:30:11;0;0;0
74436;PMS7003;62868;52.360;30.424;2023-07-29T00:35:24;0;0;0
74436;PMS7003;62868;52.360;30.424;2023-07-29T00:40:52;0;0;0
74436;PMS7003;62868;52.360;30.424;2023-07-29T00:45:38;0;0;0
74436;PMS7003;62868;52.360;30.424;2023-07-29T00:50:42;0.3;0;0
74436;PMS7003;62868;52.360;30.424;2023-07-29T00:55:54;0;0;0
74436;PMS7003;62868;52.360;30.424;2023-07-29T01:00:40;0;0;0
74436;PMS7003;62868;52.360;30.424;2023-07-29T01:05:58;0;0;0
74436;PMS7003;62868;52.360;30.424;2023-07-29T01:10:14;0;0;0
74436;PMS7003;62868;52.360;30.424;2023-07-29T01:15:54;0;0;0
74436;PMS7003;62868;52.360;30.424;2023-07-29T01:20:54;0;0;0
74436;PMS7003;62868;52.360;30.424;2023-07-29T01:25:52;0;0;0
74436;PMS7003;62868;52.360;30.424;2023-07-29T01:30:57;0;0;0
74436;PMS7003;62868;52.360;30.424;2023-07-29T01:35:40;0.3;0;0
74436;PMS7003;62868;52.360;30.424;2023-07-29T01:40:50;0;0;0
74436;PMS7003;62868;52.360;30.424;2023-07-29T01:45:18;0;0;0
74436;PMS7003;62868;52.360;30.424;2023-07-29T01:50:52;0;0;0
74436;PMS7003;62868;52.360;30.424;2023-07-29T01:55:38;0.3;0.3;0
74436;PMS7003;62868;52.360;30.424;2023-07-29T02:00:12;0;0;0
74436;PMS7003;62868;52.360;30.424;2023-07-29T02:05:54;0;0;0
74436;PMS7003;62868;52.360;30.424;2023-07-29T02:10:38;0.3;0;0
74436;PMS7003;62868;52.360;30.424;2023-07-29T02:15:12;0;0;0
74436;PMS7003;62868;52.360;30.424;2023-07-29T02:20:12;0;0;0
74436;PMS7003;62868;52.360;30.424;2023-07-29T02:25:38;0.3;0;0
74436;PMS7003;62868;52.360;30.424;2023-07-29T02:30:41;0;0;0
74436;PMS7003;62868;52.360;30.424;2023-07-29T02:35:40;0;0;0
74436;PMS7003;62868;52.360;30.424;2023-07-29T02:40:54;0.3;0;0
74436;PMS7003;62868;52.360;30.424;2023-07-29T02:45:12;0;0;0
74436;PMS7003;62868;52.360;30.424;2023-07-29T02:50:38;0;0;0
74436;PMS7003;62868;52.360;30.424;2023-07-29T02:55:20;0;0;0
74436;PMS7003;62868;52.360;30.424;2023-07-29T03:00:30;0;0;0
74436;PMS7003;62868;52.360;30.424;2023-07-29T03:05:44;0;0;0
74436;PMS7003;62868;52.360;30.424;2023-07-29T03:10:54;0;0;0
74436;PMS7003;62868;52.360;30.424;2023-07-29T03:15:12;0;0;0
74436;PMS7003;62868;52.360;30.424;2023-07-29T03:20:30;0;0;0
74436;PMS7003;62868;52.360;30.424;2023-07-29T03:25:54;0.3;0.3;0.3
74436;PMS7003;62868;52.360;30.424;2023-07-29T03:30:24;0;0;0
74436;PMS7003;62868;52.360;30.424;2023-07-29T03:35:26;0;0;0
74436;PMS7003;62868;52.360;30.424;2023-07-29T03:40:12;0;0;0
74436;PMS7003;62868;52.360;30.424;2023-07-29T03:45:44;0;0;0
74436;PMS7003;62868;52.360;30.424;2023-07-29T03:50:12;0.3;0.3;0
74436;PMS7003;62868;52.360;30.424;2023-07-29T03:55:30;0;0;0
74436;PMS7003;62868;52.360;30.424;2023-07-29T04:00:54;0;0;0
74436;PMS7003;62868;52.360;30.424;2023-07-29T04:05:44;0;0;0
74436;PMS7003;62868;52.360;30.424;2023-07-29T04:10:28;0;0;0
74436;PMS7003;62868;52.360;30.424;2023-07-29T04:15:30;0;0;0
74436;PMS7003;62868;52.360;30.424;2023-07-29T04:20:54;0;0;0
74436;PMS7003;62868;52.360;30.424;2023-07-29T04:25:12;0;0;0
74436;PMS7003;62868;52.360;30.424;2023-07-29T04:30:24;0;0;0
74436;PMS7003;62868;52.360;30.424;2023-07-29T04:35:40;0;0;0
74436;PMS7003;62868;52.360;30.424;2023-07-29T04:40:14;0.3;0.3;0
74436;PMS7003;62868;52.360;30.424;2023-07-29T04:45:54;0;0;0
74436;PMS7003;62868;52.360;30.424;2023-07-29T04:50:30;0;0;0
74436;PMS7003;62868;52.360;30.424;2023-07-29T04:55:16;0;0;0
74436;PMS7003;62868;52.360;30.424;2023-07-29T05:00:16;0;0;0
74436;PMS7003;62868;52.360;30.424;2023-07-29T05:05:54;0;0;0
74436;PMS7003;62868;52.360;30.424;2023-07-29T05:10:40;0;0;0
74436;PMS7003;62868;52.360;30.424;2023-07-29T05:15:44;0.3;0.3;0.3
74436;PMS7003;62868;52.360;30.424;2023-07-29T05:20:54;0;0;0
74436;PMS7003;62868;52.360;30.424;2023-07-29T05:25:24;0;0;0
74436;PMS7003;62868;52.360;30.424;2023-07-29T05:30:12;0;0;0
74436;PMS7003;62868;52.360;30.424;2023-07-29T05:35:12;0.3;0.3;0.3
74436;PMS7003;62868;52.360;30.424;2023-07-29T05:40:54;0;0;0
74436;PMS7003;62868;52.360;30.424;2023-07-29T05:45:48;0;0;0
74436;PMS7003;62868;52.360;30.424;2023-07-29T05:50:54;0;0;0
74436;PMS7003;62868;52.360;30.424;2023-07-29T05:55:54;0;0;0
74436;PMS7003;62868;52.360;30.424;2023-07-29T06:00:40;0;0;0
74436;PMS7003;62868;52.360;30.424;2023-07-29T06:05:32;0;0;0
74436;PMS7003;62868;52.360;30.424;2023-07-29T06:10:14;0.3;0;0
74436;PMS7003;62868;52.360;30.424;2023-07-29T06:15:54;0.3;0;0
74436;PMS7003;62868;52.360;30.424;2023-07-29T06:20:36;0;0;0
74436;PMS7003;62868;52.360;30.424;2023-07-29T06:25:40;0;0;0
74436;PMS7003;62868;52.360;30.424;2023-07-29T06:30:54;0;0;0
74436;PMS7003;62868;52.360;30.424;2023-07-29T06:35:28;0;0;0
74436;PMS7003;62868;52.360;30.424;2023-07-29T06:40:20;0;0;0
74436;PMS7003;62868;52.360;30.424;2023-07-29T06:45:20;0;0;0
74436;PMS7003;62868;52.360;30.424;2023-07-29T06:50:12;0;0;0
74436;PMS7003;62868;52.360;30.424;2023-07-29T06:55:26;0;0;0
74436;PMS7003;62868;52.360;30.424;2023-07-29T07:00:38;0;0;0
74436;PMS7003;62868;52.360;30.424;2023-07-29T07:05:26;0;0;0
74436;PMS7003;62868;52.360;30.424;2023-07-29T07:10:40;0;0;0
74436;PMS7003;62868;52.360;30.424;2023-07-29T07:15:36;0;0;0
74436;PMS7003;62868;52.360;30.424;2023-07-29T07:20:12;0;0;0
74436;PMS7003;62868;52.360;30.424;2023-07-29T07:25:12;0;0;0
74436;PMS7003;62868;52.360;30.424;2023-07-29T07:30:44;0;0;0
74436;PMS7003;62868;52.360;30.424;2023-07-29T07:35:46;0;0;0
74436;PMS7003;62868;52.360;30.424;2023-07-29T07:40:38;0;0;0
74436;PMS7003;62868;52.360;30.424;2023-07-29T07:45:31;0;0;0
74436;PMS7003;62868;52.360;30.424;2023-07-29T07:50:52;0;0;0
74436;PMS7003;62868;52.360;30.424;2023-07-29T07:55:20;0;0;0
74436;PMS7003;62868;52.360;30.424;2023-07-29T08:00:22;0;0;0
74436;PMS7003;62868;52.360;30.424;2023-07-29T08:05:12;0;0;0
74436;PMS7003;62868;52.360;30.424;2023-07-29T08:10:42;0;0;0
74436;PMS7003;62868;52.360;30.424;2023-07-29T08:15:16;0;0;0
74436;PMS7003;62868;52.360;30.424;2023-07-29T08:20:26;0;0;0
74436;PMS7003;62868;52.360;30.424;2023-07-29T08:25:52;0;0;0
74436;PMS7003;62868;52.360;30.424;2023-07-29T08:30:32;0;0;0
74436;PMS7003;62868;52.360;30.424;2023-07-29T08:35:26;0;0;0
74436;PMS7003;62868;52.360;30.424;2023-07-29T08:40:12;0;0;0
74436;PMS7003;62868;52.360;30.424;2023-07-29T08:45:52;0;0;0
74436;PMS7003;62868;52.360;30.424;2023-07-29T08:50:16;0;0;0
74436;PMS7003;62868;52.360;30.424;2023-07-29T08:55:16;0;0;0
74436;PMS7003;62868;52.360;30.424;2023-07-29T09:00:36;0;0;0
74436;PMS7003;62868;52.360;30.424;2023-07-29T09:05:42;0;0;0
74436;PMS7003;62868;52.360;30.424;2023-07-29T09:10:52;0;0;0
74436;PMS7003;62868;52.360;30.424;2023-07-29T09:15:25;0;0;0
74436;PMS7003;62868;52.360;30.424;2023-07-29T09:20:12;0;0;0
74436;PMS7003;62868;52.360;30.424;2023-07-29T09:25:12;0;0;0
74436;PMS7003;62868;52.360;30.424;2023-07-29T09:30:52;0;0;0
74436;PMS7003;62868;52.360;30.424;2023-07-29T09:35:40;0;0;0
74436;PMS7003;62868;52.360;30.424;2023-07-29T09:40:40;0;0;0
74436;PMS7003;62868;52.360;30.424;2023-07-29T09:45:52;0;0;0
74436;PMS7003;62868;52.360;30.424;2023-07-29T09:50:32;0;0;0
74436;PMS7003;62868;52.360;30.424;2023-07-29T09:55:12;0;0;0
74436;PMS7003;62868;52.360;30.424;2023-07-29T10:00:28;0;0;0
74436;PMS7003;62868;52.360;30.424;2023-07-29T10:05:52;0;0;0
74436;PMS7003;62868;52.360;30.424;2023-07-29T10:10:52;0;0;0
74436;PMS7003;62868;52.360;30.424;2023-07-29T10:15:42;0.3;0.3;0
74436;PMS7003;62868;52.360;30.424;2023-07-29T10:20:48;0;0;0
74436;PMS7003;62868;52.360;30.424;2023-07-29T10:25:28;0;0;0
74436;PMS7003;62868;52.360;30.424;2023-07-29T10:30:16;0;0;0
74436;PMS7003;62868;52.360;30.424;2023-07-29T10:35:40;0;0;0
74436;PMS7003;62868;52.360;30.424;2023-07-29T10:40:52;0;0;0
74436;PMS7003;62868;52.360;30.424;2023-07-29T10:45:36;0;0;0
74436;PMS7003;62868;52.360;30.424;2023-07-29T10:50:26;0.5;0.3;0
74436;PMS7003;62868;52.360;30.424;2023-07-29T10:55:53;0;0;0
74436;PMS7003;62868;52.360;30.424;2023-07-29T11:00:12;0;0;0
74436;PMS7003;62868;52.360;30.424;2023-07-29T11:05:17;0;0;0
74436;PMS7003;62868;52.360;30.424;2023-07-29T11:10:12;0.3;0;0
74436;PMS7003;62868;52.360;30.424;2023-07-29T11:15:36;0;0;0
74436;PMS7003;62868;52.360;30.424;2023-07-29T11:20:26;0;0;0
74436;PMS7003;62868;52.360;30.424;2023-07-29T11:25:40;0;0;0
74436;PMS7003;62868;52.360;30.424;2023-07-29T11:30:40;0;0;0
74436;PMS7003;62868;52.360;30.424;2023-07-29T11:35:12;0;0;0
74436;PMS7003;62868;52.360;30.424;2023-07-29T11:40:13;0;0;0
74436;PMS7003;62868;52.360;30.424;2023-07-29T11:45:12;0;0;0
74436;PMS7003;62868;52.360;30.424;2023-07-29T11:50:24;0;0;0
74436;PMS7003;62868;52.360;30.424;2023-07-29T11:55:52;0;0;0
74436;PMS7003;62868;52.360;30.424;2023-07-29T12:00:52;0;0;0
74436;PMS7003;62868;52.360;30.424;2023-07-29T12:05:13;0;0;0
74436;PMS7003;62868;52.360;30.424;2023-07-29T12:10:12;0;0;0
74436;PMS7003;62868;52.360;30.424;2023-07-29T12:15:37;0;0;0
74436;PMS7003;62868;52.360;30.424;2023-07-29T12:20:12;0;0;0
74436;PMS7003;62868;52.360;30.424;2023-07-29T12:25:22;0;0;0
74436;PMS7003;62868;52.360;30.424;2023-07-29T12:30:42;0;0;0
74436;PMS7003;62868;52.360;30.424;2023-07-29T12:35:52;0;0;0
74436;PMS7003;62868;52.360;30.424;2023-07-29T12:40:27;0;0;0
74436;PMS7003;62868;52.360;30.424;2023-07-29T12:45:12;0;0;0
74436;PMS7003;62868;52.360;30.424;2023-07-29T12:50:52;0;0;0
74436;PMS7003;62868;52.360;30.424;2023-07-29T12:55:12;0;0;0
74436;PMS7003;62868;52.360;30.424;2023-07-29T13:00:26;0;0;0
74436;PMS7003;62868;52.360;30.424;2023-07-29T13:05:36;0;0;0
74436;PMS7003;62868;52.360;30.424;2023-07-29T13:10:42;0;0;0
74436;PMS7003;62868;52.360;30.424;2023-07-29T13:15:16;0;0;0
74436;PMS7003;62868;52.360;30.424;2023-07-29T13:20:12;0;0;0
74436;PMS7003;62868;52.360;30.424;2023-07-29T13:25:50;0.3;0.3;0.3
74436;PMS7003;62868;52.360;30.424;2023-07-29T13:30:32;0.3;0;0
74436;PMS7003;62868;52.360;30.424;2023-07-29T13:35:22;0;0;0
74436;PMS7003;62868;52.360;30.424;2023-07-29T13:40:31;0;0;0
74436;PMS7003;62868;52.360;30.424;2023-07-29T13:45:42;0;0;0
74436;PMS7003;62868;52.360;30.424;2023-07-29T13:50:12;0;0;0
74436;PMS7003;62868;52.360;30.424;2023-07-29T13:55:16;1;1;0.3
74436;PMS7003;62868;52.360;30.424;2023-07-29T14:00:40;1;0.3;0.3
74436;PMS7003;62868;52.360;30.424;2023-07-29T14:05:22;0.7;0.7;0.7
74436;PMS7003;62868;52.360;30.424;2023-07-29T14:10:50;0;0;0
74436;PMS7003;62868;52.360;30.424;2023-07-29T14:15:30;0;0;0
74436;PMS7003;62868;52.360;30.424;2023-07-29T14:20:12;0;0;0
74436;PMS7003;62868;52.360;30.424;2023-07-29T14:25:12;0;0;0
74436;PMS7003;62868;52.360;30.424;2023-07-29T14:30:52;0;0;0
74436;PMS7003;62868;52.360;30.424;2023-07-29T14:35:52;0;0;0
74436;PMS7003;62868;52.360;30.424;2023-07-29T14:40:52;0;0;0
74436;PMS7003;62868;52.360;30.424;2023-07-29T14:45:52;0;0;0
74436;PMS7003;62868;52.360;30.424;2023-07-29T14:50:32;0;0;0
74436;PMS7003;62868;52.360;30.424;2023-07-29T14:55:12;0;0;0
74436;PMS7003;62868;52.360;30.424;2023-07-29T15:00:32;0;0;0
74436;PMS7003;62868;52.360;30.424;2023-07-29T15:05:50;0;0;0
74436;PMS7003;62868;52.360;30.424;2023-07-29T15:10:34;0;0;0
74436;PMS7003;62868;52.360;30.424;2023-07-29T15:15:12;0;0;0
74436;PMS7003;62868;52.360;30.424;2023-07-29T15:20:50;0;0;0
74436;PMS7003;62868;52.360;30.424;2023-07-29T15:25:24;0;0;0
74436;PMS7003;62868;52.360;30.424;2023-07-29T15:30:35;0;0;0
74436;PMS7003;62868;52.360;30.424;2023-07-29T15:35:22;0;0;0
74436;PMS7003;62868;52.360;30.424;2023-07-29T15:40:34;0;0;0
74436;PMS7003;62868;52.360;30.424;2023-07-29T15:45:22;0;0;0
74436;PMS7003;62868;52.360;30.424;2023-07-29T15:50:38;0.3;0;0
74436;PMS7003;62868;52.360;30.424;2023-07-29T15:55:50;0;0;0
74436;PMS7003;62868;52.360;30.424;2023-07-29T16:00:14;0;0;0
74436;PMS7003;62868;52.360;30.424;2023-07-29T16:05:12;0;0;0
74436;PMS7003;62868;52.360;30.424;2023-07-29T16:10:12;0;0;0
74436;PMS7003;62868;52.360;30.424;2023-07-29T16:15:26;0;0;0
74436;PMS7003;62868;52.360;30.424;2023-07-29T16:20:34;0;0;0
74436;PMS7003;62868;52.360;30.424;2023-07-29T16:25:50;0;0;0
74436;PMS7003;62868;52.360;30.424;2023-07-29T16:30:26;0.3;0;0
74436;PMS7003;62868;52.360;30.424;2023-07-29T16:35:16;0;0;0
74436;PMS7003;62868;52.360;30.424;2023-07-29T16:40:34;0;0;0
74436;PMS7003;62868;52.360;30.424;2023-07-29T16:45:40;0;0;0
74436;PMS7003;62868;52.360;30.424;2023-07-29T16:50:12;0;0;0
74436;PMS7003;62868;52.360;30.424;2023-07-29T16:55:42;0;0;0
74436;PMS7003;62868;52.360;30.424;2023-07-29T17:00:52;0;0;0
74436;PMS7003;62868;52.360;30.424;2023-07-29T17:05:18;0;0;0
74436;PMS7003;62868;52.360;30.424;2023-07-29T17:10:16;0;0;0
74436;PMS7003;62868;52.360;30.424;2023-07-29T17:15:52;0;0;0
74436;PMS7003;62868;52.360;30.424;2023-07-29T17:20:20;0;0;0
74436;PMS7003;62868;52.360;30.424;2023-07-29T17:25:26;0;0;0
74436;PMS7003;62868;52.360;30.424;2023-07-29T17:30:31;0;0;0
74436;PMS7003;62868;52.360;30.424;2023-07-29T17:35:41;0;0;0
74436;PMS7003;62868;52.360;30.424;2023-07-29T17:40:18;0;0;0
74436;PMS7003;62868;52.360;30.424;2023-07-29T17:45:16;0;0;0
74436;PMS7003;62868;52.360;30.424;2023-07-29T17:50:50;0;0;0
74436;PMS7003;62868;52.360;30.424;2023-07-29T17:55:42;0;0;0
74436;PMS7003;62868;52.360;30.424;2023-07-29T18:00:12;0;0;0
74436;PMS7003;62868;52.360;30.424;2023-07-29T18:05:12;0;0;0
74436;PMS7003;62868;52.360;30.424;2023-07-29T18:10:40;0;0;0
74436;PMS7003;62868;52.360;30.424;2023-07-29T18:15:16;0.3;0.3;0
74436;PMS7003;62868;52.360;30.424;2023-07-29T18:20:52;0;0;0
74436;PMS7003;62868;52.360;30.424;2023-07-29T18:25:40;0;0;0
74436;PMS7003;62868;52.360;30.424;2023-07-29T18:30:42;0.3;0.3;0.3
74436;PMS7003;62868;52.360;30.424;2023-07-29T18:35:52;0;0;0
74436;PMS7003;62868;52.360;30.424;2023-07-29T18:40:40;0.3;0.3;0.3
74436;PMS7003;62868;52.360;30.424;2023-07-29T18:45:12;0;0;0
74436;PMS7003;62868;52.360;30.424;2023-07-29T18:50:12;0.7;0.3;0.3
74436;PMS7003;62868;52.360;30.424;2023-07-29T18:55:52;1;1;0.3
74436;PMS7003;62868;52.360;30.424;2023-07-29T19:00:52;0.5;0.5;0.5
74436;PMS7003;62868;52.360;30.424;2023-07-29T19:05:54;2;1.7;1
74436;PMS7003;62868;52.360;30.424;2023-07-29T19:10:52;2.3;1.3;1.3
74436;PMS7003;62868;52.360;30.424;2023-07-29T19:15:38;2.3;2.3;2.3
74436;PMS7003;62868;52.360;30.424;2023-07-29T19:20:12;2.7;2;1.7
74436;PMS7003;62868;52.360;30.424;2023-07-29T19:25:43;2.3;2.3;1.7
74436;PMS7003;62868;52.360;30.424;2023-07-29T19:30:52;3.3;2.3;1.7
74436;PMS7003;62868;52.360;30.424;2023-07-29T19:35:36;2.3;2;1.5
74436;PMS7003;62868;52.360;30.424;2023-07-29T19:40:26;2;1.7;1.3
74436;PMS7003;62868;52.360;30.424;2023-07-29T19:45:52;1.7;1.3;1.3
74436;PMS7003;62868;52.360;30.424;2023-07-29T19:50:12;1.7;1;1
74436;PMS7003;62868;52.360;30.424;2023-07-29T19:55:12;1.3;1;0.5
74436;PMS7003;62868;52.360;30.424;2023-07-29T20:00:24;0.7;0.3;0.3
74436;PMS7003;62868;52.360;30.424;2023-07-29T20:05:54;0.3;0.3;0.3
74436;PMS7003;62868;52.360;30.424;2023-07-29T20:10:26;0.7;0.3;0.3
74436;PMS7003;62868;52.360;30.424;2023-07-29T20:15:14;0.5;0.5;0
74436;PMS7003;62868;52.360;30.424;2023-07-29T20:20:30;0.3;0.3;0
74436;PMS7003;62868;52.360;30.424;2023-07-29T20:25:16;0.3;0.3;0
74436;PMS7003;62868;52.360;30.424;2023-07-29T20:30:16;1.3;0.7;0.3
74436;PMS7003;62868;52.360;30.424;2023-07-29T20:35:12;0.3;0.3;0.3
74436;PMS7003;62868;52.360;30.424;2023-07-29T20:40:28;0.3;0.3;0.3
74436;PMS7003;62868;52.360;30.424;2023-07-29T20:45:30;0.3;0.3;0
74436;PMS7003;62868;52.360;30.424;2023-07-29T20:50:54;0;0;0
74436;PMS7003;62868;52.360;30.424;2023-07-29T20:55:30;0.3;0;0
74436;PMS7003;62868;52.360;30.424;2023-07-29T21:00:26;0;0;0
74436;PMS7003;62868;52.360;30.424;2023-07-29T21:05:38;0.3;0.3;0
74436;PMS7003;62868;52.360;30.424;2023-07-29T21:10:54;0.3;0;0
74436;PMS7003;62868;52.360;30.424;2023-07-29T21:15:12;0;0;0
74436;PMS7003;62868;52.360;30.424;2023-07-29T21:20:44;0.7;0.3;0.3
74436;PMS7003;62868;52.360;30.424;2023-07-29T21:25:40;0;0;0
74436;PMS7003;62868;52.360;30.424;2023-07-29T21:30:24;0;0;0
74436;PMS7003;62868;52.360;30.424;2023-07-29T21:35:16;0.7;0;0
74436;PMS7003;62868;52.360;30.424;2023-07-29T21:40:40;0.7;0;0
74436;PMS7003;62868;52.360;30.424;2023-07-29T21:45:20;0.7;0;0
74436;PMS7003;62868;52.360;30.424;2023-07-29T21:50:26;0;0;0
74436;PMS7003;62868;52.360;30.424;2023-07-29T21:55:30;0;0;0
74436;PMS7003;62868;52.360;30.424;2023-07-29T22:00:44;0;0;0
74436;PMS7003;62868;52.360;30.424;2023-07-29T22:05:12;0.3;0;0
74436;PMS7003;62868;52.360;30.424;2023-07-29T22:10:24;0;0;0
74436;PMS7003;62868;52.360;30.424;2023-07-29T22:15:40;1;0;0
74436;PMS7003;62868;52.360;30.424;2023-07-29T22:20:51;0;0;0
74436;PMS7003;62868;52.360;30.424;2023-07-29T22:25:54;0;0;0
74436;PMS7003;62868;52.360;30.424;2023-07-29T22:30:12;0.7;0;0
74436;PMS7003;62868;52.360;30.424;2023-07-29T22:35:27;0;0;0
74436;PMS7003;62868;52.360;30.424;2023-07-29T22:40:24;0.3;0.3;0
74436;PMS7003;62868;52.360;30.424;2023-07-29T22:45:55;0;0;0
74436;PMS7003;62868;52.360;30.424;2023-07-29T22:50:26;0.3;0;0
74436;PMS7003;62868;52.360;30.424;2023-07-29T22:55:42;0;0;0
74436;PMS7003;62868;52.360;30.424;2023-07-29T23:00:46;1;0.3;0.3
74436;PMS7003;62868;52.360;30.424;2023-07-29T23:05:54;0;0;0
74436;PMS7003;62868;52.360;30.424;2023-07-29T23:10:16;0.3;0.3;0
74436;PMS7003;62868;52.360;30.424;2023-07-29T23:15:24;0.3;0.3;0.3
74436;PMS7003;62868;52.360;30.424;2023-07-29T23:20:54;0.3;0.3;0.3
74436;PMS7003;62868;52.360;30.424;2023-07-29T23:25:54;0.3;0;0
74436;PMS7003;62868;52.360;30.424;2023-07-29T23:30:54;0;0;0
74436;PMS7003;62868;52.360;30.424;2023-07-29T23:35:57;0;0;0
74436;PMS7003;62868;52.360;30.424;2023-07-29T23:40:22;0.3;0;0
74436;PMS7003;62868;52.360;30.424;2023-07-29T23:45:38;0.3;0;0
74436;PMS7003;62868;52.360;30.424;2023-07-29T23:50:40;0.3;0.3;0.3
74436;PMS7003;62868;52.360;30.424;2023-07-29T23:55:54;0;0;0
